Islamorada, FL (33036)

7:34 AM EDT on September 29, 2016 (GMT -0400)
Oceana | | Change Station

Elev 26 ft 24.92 °N, 80.63 °W | Updated 13 seconds ago

Clear
Clear
77.9 °F
Feels Like 80 °F
N
0.0
Wind Variable Wind from SSE
Gusts 0.0 mph

Today
High -- | Low -- °F
--% Chance of Precip.
Yesterday
High -- | Low -- °F
Precip. -- in
Pressure 30.05 in
Visibility 10.0 miles
Clouds Clear
Heat Index 80 °F
Dew Point 75 °F
Humidity 90%
Rainfall 0.00 in
Snow Depth Not available.
7:14 AM 7:10 PM
Waning Crescent, 2% visible
METAR KHST 291058Z AUTO 10001KT 10SM CLR 24/23 A3004 RMK AO2 SLP176 T02370232
Pressure 30.05 in
Visibility 10.0 miles
Clouds Clear
Heat Index 80 °F
Dew Point 75 °F
Humidity 90%
Rainfall 0.00 in
Snow Depth Not available.
7:14 AM 7:10 PM
Waning Crescent, 2% visible
METAR KHST 291058Z AUTO 10001KT 10SM CLR 24/23 A3004 RMK AO2 SLP176 T02370232

10-Day Weather Forecast

Almanac

Astronomy

Sep. 29, 2016 Rise Set
Actual Time
Civil Twilight
Nautical Twilight
Astronomical Twilight
Moon
Length of Visible Light
Length of Day
Tomorrow will be .
, % of the Moon is Illuminated

Today's Extremes

State Highs State Lows

Community

WunderPhotos

Upload Photos

1,942,463 photos uploaded!

WunderBlog® & News

Nearby

Air Quality

  Air Quality AQ Index Pollutant
Not available.

Snow Depth

Station Depth Elevation

Earthquake Activity

City Distance Mag. Time & Date
Minimum magnitude displayed is 2.5.

Coastal Water Temperatures

Place Temperature

Stations

Nearby Weather Stations

Station Location Temp. Windchill Dew Point Humidity Wind Precip. Elev Updated Type
                   

Watches & Warnings

There are currently no watches in effect.